sensor_id;sensor_type;location;lat;lon;timestamp;P1;durP1;ratioP1;P2;durP2;ratioP2
16954;SDS011;8594;52.052;8.354;2022-12-16T00:01:05;35.43;;;18.33;;
16954;SDS011;8594;52.052;8.354;2022-12-16T00:03:36;32.77;;;16.63;;
16954;SDS011;8594;52.052;8.354;2022-12-16T00:06:05;35.90;;;17.70;;
16954;SDS011;8594;52.052;8.354;2022-12-16T00:08:35;43.67;;;19.80;;
16954;SDS011;8594;52.052;8.354;2022-12-16T00:11:05;36.33;;;16.77;;
16954;SDS011;8594;52.052;8.354;2022-12-16T00:13:34;38.43;;;18.13;;
16954;SDS011;8594;52.052;8.354;2022-12-16T00:16:03;39.43;;;19.30;;
16954;SDS011;8594;52.052;8.354;2022-12-16T00:18:31;39.60;;;18.70;;
16954;SDS011;8594;52.052;8.354;2022-12-16T00:20:59;39.03;;;20.37;;
16954;SDS011;8594;52.052;8.354;2022-12-16T00:23:27;37.83;;;18.33;;
16954;SDS011;8594;52.052;8.354;2022-12-16T00:25:54;40.23;;;19.53;;
16954;SDS011;8594;52.052;8.354;2022-12-16T00:28:21;37.77;;;18.97;;
16954;SDS011;8594;52.052;8.354;2022-12-16T00:30:49;44.83;;;17.87;;
16954;SDS011;8594;52.052;8.354;2022-12-16T00:33:18;36.73;;;17.37;;
16954;SDS011;8594;52.052;8.354;2022-12-16T00:35:47;33.03;;;16.73;;
16954;SDS011;8594;52.052;8.354;2022-12-16T00:38:16;36.17;;;17.30;;
16954;SDS011;8594;52.052;8.354;2022-12-16T00:40:44;31.10;;;16.10;;
16954;SDS011;8594;52.052;8.354;2022-12-16T00:43:11;36.07;;;17.23;;
16954;SDS011;8594;52.052;8.354;2022-12-16T00:45:38;33.93;;;16.40;;
16954;SDS011;8594;52.052;8.354;2022-12-16T00:48:05;34.07;;;15.37;;
16954;SDS011;8594;52.052;8.354;2022-12-16T00:50:32;29.17;;;14.87;;
16954;SDS011;8594;52.052;8.354;2022-12-16T00:53:00;29.10;;;14.90;;
16954;SDS011;8594;52.052;8.354;2022-12-16T00:55:29;31.70;;;15.13;;
16954;SDS011;8594;52.052;8.354;2022-12-16T00:57:56;32.00;;;15.37;;
16954;SDS011;8594;52.052;8.354;2022-12-16T01:00:24;30.40;;;14.43;;
16954;SDS011;8594;52.052;8.354;2022-12-16T01:02:51;32.47;;;14.53;;
16954;SDS011;8594;52.052;8.354;2022-12-16T01:05:19;31.33;;;15.17;;
16954;SDS011;8594;52.052;8.354;2022-12-16T01:07:50;27.53;;;14.40;;
16954;SDS011;8594;52.052;8.354;2022-12-16T01:10:17;26.63;;;14.13;;
16954;SDS011;8594;52.052;8.354;2022-12-16T01:12:46;26.83;;;14.50;;
16954;SDS011;8594;52.052;8.354;2022-12-16T01:15:14;29.43;;;14.77;;
16954;SDS011;8594;52.052;8.354;2022-12-16T01:17:41;32.27;;;15.67;;
16954;SDS011;8594;52.052;8.354;2022-12-16T01:20:08;27.67;;;14.60;;
16954;SDS011;8594;52.052;8.354;2022-12-16T01:22:37;30.53;;;14.50;;
16954;SDS011;8594;52.052;8.354;2022-12-16T01:25:04;28.80;;;13.97;;
16954;SDS011;8594;52.052;8.354;2022-12-16T01:27:32;27.97;;;13.57;;
16954;SDS011;8594;52.052;8.354;2022-12-16T01:30:00;25.07;;;13.87;;
16954;SDS011;8594;52.052;8.354;2022-12-16T01:32:27;25.70;;;13.20;;
16954;SDS011;8594;52.052;8.354;2022-12-16T01:34:54;30.17;;;14.80;;
16954;SDS011;8594;52.052;8.354;2022-12-16T01:37:21;28.20;;;13.07;;
16954;SDS011;8594;52.052;8.354;2022-12-16T01:39:49;28.70;;;14.03;;
16954;SDS011;8594;52.052;8.354;2022-12-16T01:42:17;28.23;;;12.53;;
16954;SDS011;8594;52.052;8.354;2022-12-16T01:44:47;28.33;;;12.90;;
16954;SDS011;8594;52.052;8.354;2022-12-16T01:47:20;28.03;;;14.73;;
16954;SDS011;8594;52.052;8.354;2022-12-16T01:49:53;25.67;;;14.07;;
16954;SDS011;8594;52.052;8.354;2022-12-16T01:52:28;22.87;;;11.80;;
16954;SDS011;8594;52.052;8.354;2022-12-16T01:55:00;26.77;;;14.70;;
16954;SDS011;8594;52.052;8.354;2022-12-16T01:57:32;24.80;;;13.90;;
16954;SDS011;8594;52.052;8.354;2022-12-16T02:00:08;28.63;;;14.07;;
16954;SDS011;8594;52.052;8.354;2022-12-16T02:02:38;32.47;;;13.90;;
16954;SDS011;8594;52.052;8.354;2022-12-16T02:05:07;29.27;;;13.93;;
16954;SDS011;8594;52.052;8.354;2022-12-16T02:07:51;28.27;;;13.17;;
16954;SDS011;8594;52.052;8.354;2022-12-16T02:10:27;27.07;;;13.93;;
16954;SDS011;8594;52.052;8.354;2022-12-16T02:13:09;28.40;;;14.00;;
16954;SDS011;8594;52.052;8.354;2022-12-16T02:15:50;27.90;;;13.80;;
16954;SDS011;8594;52.052;8.354;2022-12-16T02:18:31;29.17;;;14.37;;
16954;SDS011;8594;52.052;8.354;2022-12-16T02:21:13;26.10;;;13.13;;
16954;SDS011;8594;52.052;8.354;2022-12-16T02:24:07;26.50;;;14.07;;
16954;SDS011;8594;52.052;8.354;2022-12-16T02:27:20;27.87;;;13.40;;
16954;SDS011;8594;52.052;8.354;2022-12-16T02:30:19;26.03;;;13.13;;
16954;SDS011;8594;52.052;8.354;2022-12-16T02:33:13;24.07;;;12.67;;
16954;SDS011;8594;52.052;8.354;2022-12-16T02:36:07;27.43;;;13.20;;
16954;SDS011;8594;52.052;8.354;2022-12-16T02:38:46;28.17;;;13.30;;
16954;SDS011;8594;52.052;8.354;2022-12-16T02:41:24;29.87;;;14.00;;
16954;SDS011;8594;52.052;8.354;2022-12-16T02:44:02;25.20;;;13.63;;
16954;SDS011;8594;52.052;8.354;2022-12-16T02:46:37;30.73;;;13.80;;
16954;SDS011;8594;52.052;8.354;2022-12-16T02:49:06;27.80;;;13.87;;
16954;SDS011;8594;52.052;8.354;2022-12-16T02:51:34;31.00;;;13.23;;
16954;SDS011;8594;52.052;8.354;2022-12-16T02:54:03;24.33;;;12.77;;
16954;SDS011;8594;52.052;8.354;2022-12-16T02:56:39;29.50;;;13.37;;
16954;SDS011;8594;52.052;8.354;2022-12-16T02:59:20;31.73;;;12.23;;
16954;SDS011;8594;52.052;8.354;2022-12-16T03:02:02;22.10;;;11.57;;
16954;SDS011;8594;52.052;8.354;2022-12-16T03:04:39;25.30;;;13.10;;
16954;SDS011;8594;52.052;8.354;2022-12-16T03:07:13;25.67;;;12.23;;
16954;SDS011;8594;52.052;8.354;2022-12-16T03:09:43;31.67;;;13.33;;
16954;SDS011;8594;52.052;8.354;2022-12-16T03:12:13;26.20;;;12.50;;
16954;SDS011;8594;52.052;8.354;2022-12-16T03:14:47;30.33;;;13.80;;
16954;SDS011;8594;52.052;8.354;2022-12-16T03:17:20;30.93;;;13.43;;
16954;SDS011;8594;52.052;8.354;2022-12-16T03:19:52;28.00;;;13.53;;
16954;SDS011;8594;52.052;8.354;2022-12-16T03:22:27;29.40;;;13.43;;
16954;SDS011;8594;52.052;8.354;2022-12-16T03:24:58;25.97;;;12.67;;
16954;SDS011;8594;52.052;8.354;2022-12-16T03:27:28;29.17;;;12.73;;
16954;SDS011;8594;52.052;8.354;2022-12-16T03:30:05;29.67;;;13.37;;
16954;SDS011;8594;52.052;8.354;2022-12-16T03:32:38;27.07;;;12.33;;
16954;SDS011;8594;52.052;8.354;2022-12-16T03:35:14;25.47;;;12.27;;
16954;SDS011;8594;52.052;8.354;2022-12-16T03:37:48;25.80;;;12.43;;
16954;SDS011;8594;52.052;8.354;2022-12-16T03:40:20;23.67;;;11.77;;
16954;SDS011;8594;52.052;8.354;2022-12-16T03:42:50;27.03;;;12.47;;
16954;SDS011;8594;52.052;8.354;2022-12-16T03:45:25;25.10;;;12.40;;
16954;SDS011;8594;52.052;8.354;2022-12-16T03:47:58;23.67;;;12.00;;
16954;SDS011;8594;52.052;8.354;2022-12-16T03:50:27;21.73;;;11.33;;
16954;SDS011;8594;52.052;8.354;2022-12-16T03:52:58;28.97;;;13.07;;
16954;SDS011;8594;52.052;8.354;2022-12-16T03:55:25;25.03;;;11.60;;
16954;SDS011;8594;52.052;8.354;2022-12-16T03:57:52;26.03;;;11.47;;
16954;SDS011;8594;52.052;8.354;2022-12-16T04:00:21;27.37;;;11.73;;
16954;SDS011;8594;52.052;8.354;2022-12-16T04:02:49;22.93;;;11.33;;
16954;SDS011;8594;52.052;8.354;2022-12-16T04:05:18;26.30;;;11.13;;
16954;SDS011;8594;52.052;8.354;2022-12-16T04:07:45;20.40;;;10.87;;
16954;SDS011;8594;52.052;8.354;2022-12-16T04:10:12;24.93;;;11.20;;
16954;SDS011;8594;52.052;8.354;2022-12-16T04:12:39;24.40;;;10.87;;
16954;SDS011;8594;52.052;8.354;2022-12-16T04:15:22;18.37;;;10.33;;
16954;SDS011;8594;52.052;8.354;2022-12-16T04:18:07;21.33;;;9.93;;
16954;SDS011;8594;52.052;8.354;2022-12-16T04:21:00;26.83;;;10.20;;
16954;SDS011;8594;52.052;8.354;2022-12-16T04:23:47;20.53;;;10.57;;
16954;SDS011;8594;52.052;8.354;2022-12-16T04:26:37;22.97;;;10.17;;
16954;SDS011;8594;52.052;8.354;2022-12-16T04:29:18;16.43;;;8.60;;
16954;SDS011;8594;52.052;8.354;2022-12-16T04:31:45;24.77;;;11.00;;
16954;SDS011;8594;52.052;8.354;2022-12-16T04:34:12;22.63;;;11.47;;
16954;SDS011;8594;52.052;8.354;2022-12-16T04:36:51;22.97;;;10.00;;
16954;SDS011;8594;52.052;8.354;2022-12-16T04:39:36;22.63;;;11.27;;
16954;SDS011;8594;52.052;8.354;2022-12-16T04:42:20;20.60;;;10.43;;
16954;SDS011;8594;52.052;8.354;2022-12-16T04:45:05;18.77;;;10.00;;
16954;SDS011;8594;52.052;8.354;2022-12-16T04:47:51;25.17;;;11.00;;
16954;SDS011;8594;52.052;8.354;2022-12-16T04:50:36;24.77;;;10.40;;
16954;SDS011;8594;52.052;8.354;2022-12-16T04:53:22;24.37;;;11.37;;
16954;SDS011;8594;52.052;8.354;2022-12-16T04:56:07;27.00;;;10.47;;
16954;SDS011;8594;52.052;8.354;2022-12-16T04:58:52;23.47;;;9.27;;
16954;SDS011;8594;52.052;8.354;2022-12-16T05:01:36;21.70;;;9.70;;
16954;SDS011;8594;52.052;8.354;2022-12-16T05:04:21;22.73;;;9.30;;
16954;SDS011;8594;52.052;8.354;2022-12-16T05:07:06;22.07;;;10.17;;
16954;SDS011;8594;52.052;8.354;2022-12-16T05:09:48;22.60;;;9.57;;
16954;SDS011;8594;52.052;8.354;2022-12-16T05:12:32;22.23;;;8.83;;
16954;SDS011;8594;52.052;8.354;2022-12-16T05:15:17;20.13;;;8.83;;
16954;SDS011;8594;52.052;8.354;2022-12-16T05:18:06;22.90;;;10.03;;
16954;SDS011;8594;52.052;8.354;2022-12-16T05:20:52;23.57;;;10.47;;
16954;SDS011;8594;52.052;8.354;2022-12-16T05:23:36;20.93;;;9.60;;
16954;SDS011;8594;52.052;8.354;2022-12-16T05:26:22;20.93;;;9.73;;
16954;SDS011;8594;52.052;8.354;2022-12-16T05:29:07;24.57;;;10.47;;
16954;SDS011;8594;52.052;8.354;2022-12-16T05:31:52;18.07;;;8.97;;
16954;SDS011;8594;52.052;8.354;2022-12-16T05:34:36;21.73;;;9.53;;
16954;SDS011;8594;52.052;8.354;2022-12-16T05:37:21;19.57;;;10.03;;
16954;SDS011;8594;52.052;8.354;2022-12-16T05:40:06;20.87;;;10.47;;
16954;SDS011;8594;52.052;8.354;2022-12-16T05:42:51;23.73;;;10.60;;
16954;SDS011;8594;52.052;8.354;2022-12-16T05:45:35;19.43;;;8.60;;
16954;SDS011;8594;52.052;8.354;2022-12-16T05:48:20;20.80;;;9.97;;
16954;SDS011;8594;52.052;8.354;2022-12-16T05:51:05;20.67;;;10.83;;
16954;SDS011;8594;52.052;8.354;2022-12-16T05:53:49;20.43;;;9.80;;
16954;SDS011;8594;52.052;8.354;2022-12-16T05:56:34;17.50;;;9.37;;
16954;SDS011;8594;52.052;8.354;2022-12-16T05:59:20;21.93;;;10.13;;
16954;SDS011;8594;52.052;8.354;2022-12-16T06:02:04;22.37;;;10.30;;
16954;SDS011;8594;52.052;8.354;2022-12-16T06:04:49;25.40;;;10.50;;
16954;SDS011;8594;52.052;8.354;2022-12-16T06:07:33;25.47;;;11.73;;
16954;SDS011;8594;52.052;8.354;2022-12-16T06:10:18;23.40;;;10.73;;
16954;SDS011;8594;52.052;8.354;2022-12-16T06:13:03;23.27;;;9.83;;
16954;SDS011;8594;52.052;8.354;2022-12-16T06:15:49;21.87;;;9.80;;
16954;SDS011;8594;52.052;8.354;2022-12-16T06:18:33;22.60;;;9.60;;
16954;SDS011;8594;52.052;8.354;2022-12-16T06:21:18;25.77;;;9.77;;
16954;SDS011;8594;52.052;8.354;2022-12-16T06:24:11;16.40;;;9.17;;
16954;SDS011;8594;52.052;8.354;2022-12-16T06:26:55;54.90;;;11.40;;
16954;SDS011;8594;52.052;8.354;2022-12-16T06:29:40;38.93;;;10.90;;
16954;SDS011;8594;52.052;8.354;2022-12-16T06:32:26;27.20;;;11.10;;
16954;SDS011;8594;52.052;8.354;2022-12-16T06:35:11;22.53;;;9.97;;
16954;SDS011;8594;52.052;8.354;2022-12-16T06:37:55;22.50;;;10.93;;
16954;SDS011;8594;52.052;8.354;2022-12-16T06:40:40;26.03;;;11.47;;
16954;SDS011;8594;52.052;8.354;2022-12-16T06:43:24;23.93;;;10.60;;
16954;SDS011;8594;52.052;8.354;2022-12-16T06:46:09;30.87;;;12.27;;
16954;SDS011;8594;52.052;8.354;2022-12-16T06:48:55;24.27;;;11.10;;
16954;SDS011;8594;52.052;8.354;2022-12-16T06:51:40;23.73;;;10.10;;
16954;SDS011;8594;52.052;8.354;2022-12-16T06:54:24;24.93;;;9.77;;
16954;SDS011;8594;52.052;8.354;2022-12-16T06:57:09;19.73;;;8.90;;
16954;SDS011;8594;52.052;8.354;2022-12-16T06:59:59;21.63;;;9.37;;
16954;SDS011;8594;52.052;8.354;2022-12-16T07:02:43;23.03;;;9.97;;
16954;SDS011;8594;52.052;8.354;2022-12-16T07:05:29;17.43;;;8.90;;
16954;SDS011;8594;52.052;8.354;2022-12-16T07:08:13;27.00;;;10.43;;
16954;SDS011;8594;52.052;8.354;2022-12-16T07:10:58;25.87;;;9.83;;
16954;SDS011;8594;52.052;8.354;2022-12-16T07:13:43;34.53;;;10.80;;
16954;SDS011;8594;52.052;8.354;2022-12-16T07:16:27;35.07;;;12.80;;
16954;SDS011;8594;52.052;8.354;2022-12-16T07:19:12;29.47;;;11.80;;
16954;SDS011;8594;52.052;8.354;2022-12-16T07:21:58;37.63;;;12.37;;
16954;SDS011;8594;52.052;8.354;2022-12-16T07:24:42;35.13;;;12.47;;
16954;SDS011;8594;52.052;8.354;2022-12-16T07:27:27;44.47;;;14.00;;
16954;SDS011;8594;52.052;8.354;2022-12-16T07:30:12;44.90;;;14.10;;
16954;SDS011;8594;52.052;8.354;2022-12-16T07:32:56;46.97;;;15.40;;
16954;SDS011;8594;52.052;8.354;2022-12-16T07:35:41;58.13;;;15.13;;
16954;SDS011;8594;52.052;8.354;2022-12-16T07:38:27;51.80;;;13.97;;
16954;SDS011;8594;52.052;8.354;2022-12-16T07:41:12;47.17;;;15.20;;
16954;SDS011;8594;52.052;8.354;2022-12-16T07:43:56;92.33;;;19.43;;
16954;SDS011;8594;52.052;8.354;2022-12-16T07:46:41;59.47;;;17.47;;
16954;SDS011;8594;52.052;8.354;2022-12-16T07:49:26;55.37;;;16.17;;
16954;SDS011;8594;52.052;8.354;2022-12-16T07:52:10;61.80;;;17.83;;
16954;SDS011;8594;52.052;8.354;2022-12-16T07:54:56;65.10;;;18.00;;
16954;SDS011;8594;52.052;8.354;2022-12-16T07:57:41;79.53;;;19.57;;
16954;SDS011;8594;52.052;8.354;2022-12-16T08:00:32;69.27;;;21.77;;
16954;SDS011;8594;52.052;8.354;2022-12-16T08:03:17;85.20;;;26.17;;
16954;SDS011;8594;52.052;8.354;2022-12-16T08:06:01;83.27;;;24.73;;
16954;SDS011;8594;52.052;8.354;2022-12-16T08:08:46;71.07;;;22.40;;
16954;SDS011;8594;52.052;8.354;2022-12-16T08:11:32;76.37;;;24.37;;
16954;SDS011;8594;52.052;8.354;2022-12-16T08:14:16;74.53;;;23.90;;
16954;SDS011;8594;52.052;8.354;2022-12-16T08:17:01;77.30;;;23.53;;
16954;SDS011;8594;52.052;8.354;2022-12-16T08:19:45;61.53;;;22.63;;
16954;SDS011;8594;52.052;8.354;2022-12-16T08:22:30;66.07;;;24.03;;
16954;SDS011;8594;52.052;8.354;2022-12-16T08:25:15;78.83;;;23.60;;
16954;SDS011;8594;52.052;8.354;2022-12-16T08:28:01;80.57;;;22.17;;
16954;SDS011;8594;52.052;8.354;2022-12-16T08:30:48;61.53;;;22.60;;
16954;SDS011;8594;52.052;8.354;2022-12-16T08:33:32;60.37;;;23.03;;
16954;SDS011;8594;52.052;8.354;2022-12-16T08:36:17;69.00;;;23.10;;
16954;SDS011;8594;52.052;8.354;2022-12-16T08:39:04;63.30;;;23.53;;
16954;SDS011;8594;52.052;8.354;2022-12-16T08:41:48;69.47;;;23.07;;
16954;SDS011;8594;52.052;8.354;2022-12-16T08:44:34;53.40;;;23.20;;
16954;SDS011;8594;52.052;8.354;2022-12-16T08:47:19;62.23;;;23.63;;
16954;SDS011;8594;52.052;8.354;2022-12-16T08:50:04;55.90;;;23.23;;
16954;SDS011;8594;52.052;8.354;2022-12-16T08:52:50;65.70;;;25.17;;
16954;SDS011;8594;52.052;8.354;2022-12-16T08:55:34;52.73;;;20.17;;
16954;SDS011;8594;52.052;8.354;2022-12-16T08:58:19;39.60;;;18.53;;
16954;SDS011;8594;52.052;8.354;2022-12-16T09:01:05;42.60;;;19.07;;
16954;SDS011;8594;52.052;8.354;2022-12-16T09:03:50;45.53;;;17.80;;
16954;SDS011;8594;52.052;8.354;2022-12-16T09:06:34;45.80;;;18.47;;
16954;SDS011;8594;52.052;8.354;2022-12-16T09:09:19;46.87;;;18.03;;
16954;SDS011;8594;52.052;8.354;2022-12-16T09:12:04;43.77;;;18.00;;
16954;SDS011;8594;52.052;8.354;2022-12-16T09:14:48;46.57;;;18.37;;
16954;SDS011;8594;52.052;8.354;2022-12-16T09:17:35;39.33;;;18.00;;
16954;SDS011;8594;52.052;8.354;2022-12-16T09:20:19;32.97;;;14.87;;
16954;SDS011;8594;52.052;8.354;2022-12-16T09:23:04;31.17;;;14.13;;
16954;SDS011;8594;52.052;8.354;2022-12-16T09:25:48;31.63;;;13.13;;
16954;SDS011;8594;52.052;8.354;2022-12-16T09:28:33;23.47;;;12.10;;
16954;SDS011;8594;52.052;8.354;2022-12-16T09:31:23;29.33;;;12.73;;
16954;SDS011;8594;52.052;8.354;2022-12-16T09:34:09;30.33;;;14.47;;
16954;SDS011;8594;52.052;8.354;2022-12-16T09:36:53;26.63;;;12.63;;
16954;SDS011;8594;52.052;8.354;2022-12-16T09:39:38;26.20;;;13.53;;
16954;SDS011;8594;52.052;8.354;2022-12-16T09:42:24;30.30;;;13.23;;
16954;SDS011;8594;52.052;8.354;2022-12-16T09:45:19;24.50;;;13.50;;
16954;SDS011;8594;52.052;8.354;2022-12-16T09:48:17;26.27;;;13.30;;
16954;SDS011;8594;52.052;8.354;2022-12-16T09:51:12;28.10;;;14.40;;
16954;SDS011;8594;52.052;8.354;2022-12-16T09:53:59;31.83;;;14.77;;
16954;SDS011;8594;52.052;8.354;2022-12-16T09:56:45;25.27;;;13.70;;
16954;SDS011;8594;52.052;8.354;2022-12-16T09:59:33;28.33;;;14.53;;
16954;SDS011;8594;52.052;8.354;2022-12-16T10:02:23;26.63;;;13.10;;
16954;SDS011;8594;52.052;8.354;2022-12-16T10:05:09;24.77;;;13.23;;
16954;SDS011;8594;52.052;8.354;2022-12-16T10:08:11;28.10;;;13.97;;
16954;SDS011;8594;52.052;8.354;2022-12-16T10:11:07;30.17;;;12.93;;
16954;SDS011;8594;52.052;8.354;2022-12-16T10:14:03;23.63;;;13.53;;
16954;SDS011;8594;52.052;8.354;2022-12-16T10:16:58;24.87;;;13.00;;
16954;SDS011;8594;52.052;8.354;2022-12-16T10:19:54;26.63;;;12.87;;
16954;SDS011;8594;52.052;8.354;2022-12-16T10:22:55;24.97;;;14.60;;
16954;SDS011;8594;52.052;8.354;2022-12-16T10:25:50;23.90;;;13.53;;
16954;SDS011;8594;52.052;8.354;2022-12-16T10:28:43;30.00;;;14.83;;
16954;SDS011;8594;52.052;8.354;2022-12-16T10:31:30;24.53;;;14.43;;
16954;SDS011;8594;52.052;8.354;2022-12-16T10:34:17;25.17;;;14.87;;
16954;SDS011;8594;52.052;8.354;2022-12-16T10:37:07;27.87;;;15.40;;
16954;SDS011;8594;52.052;8.354;2022-12-16T10:39:57;27.13;;;14.53;;
16954;SDS011;8594;52.052;8.354;2022-12-16T10:42:48;24.03;;;13.27;;
16954;SDS011;8594;52.052;8.354;2022-12-16T10:45:44;24.63;;;12.17;;
16954;SDS011;8594;52.052;8.354;2022-12-16T10:48:33;24.57;;;13.30;;
16954;SDS011;8594;52.052;8.354;2022-12-16T10:51:19;30.37;;;13.23;;
16954;SDS011;8594;52.052;8.354;2022-12-16T10:57:31;25.50;;;12.40;;
16954;SDS011;8594;52.052;8.354;2022-12-16T11:03:39;26.43;;;13.40;;
16954;SDS011;8594;52.052;8.354;2022-12-16T11:06:24;29.30;;;13.13;;
16954;SDS011;8594;52.052;8.354;2022-12-16T11:12:19;27.40;;;12.73;;
16954;SDS011;8594;52.052;8.354;2022-12-16T11:15:20;25.20;;;13.37;;
16954;SDS011;8594;52.052;8.354;2022-12-16T11:18:10;25.03;;;12.90;;
16954;SDS011;8594;52.052;8.354;2022-12-16T11:21:04;20.77;;;11.77;;
16954;SDS011;8594;52.052;8.354;2022-12-16T11:24:03;23.33;;;13.20;;
16954;SDS011;8594;52.052;8.354;2022-12-16T11:26:53;28.87;;;13.77;;
16954;SDS011;8594;52.052;8.354;2022-12-16T11:29:50;28.17;;;13.57;;
16954;SDS011;8594;52.052;8.354;2022-12-16T11:32:38;30.00;;;13.47;;
16954;SDS011;8594;52.052;8.354;2022-12-16T11:35:29;31.03;;;13.97;;
16954;SDS011;8594;52.052;8.354;2022-12-16T11:38:20;23.97;;;13.37;;
16954;SDS011;8594;52.052;8.354;2022-12-16T11:41:20;24.23;;;13.33;;
16954;SDS011;8594;52.052;8.354;2022-12-16T11:44:14;27.40;;;13.57;;
16954;SDS011;8594;52.052;8.354;2022-12-16T11:47:04;24.20;;;13.63;;
16954;SDS011;8594;52.052;8.354;2022-12-16T11:50:00;26.60;;;12.73;;
16954;SDS011;8594;52.052;8.354;2022-12-16T11:52:52;27.43;;;13.13;;
16954;SDS011;8594;52.052;8.354;2022-12-16T11:55:39;37.03;;;17.40;;
16954;SDS011;8594;52.052;8.354;2022-12-16T11:58:30;40.00;;;18.47;;
16954;SDS011;8594;52.052;8.354;2022-12-16T12:01:26;29.10;;;14.57;;
16954;SDS011;8594;52.052;8.354;2022-12-16T12:04:15;29.40;;;15.13;;
16954;SDS011;8594;52.052;8.354;2022-12-16T12:13:51;25.00;;;13.40;;
16954;SDS011;8594;52.052;8.354;2022-12-16T12:16:58;31.90;;;15.13;;
16954;SDS011;8594;52.052;8.354;2022-12-16T12:20:17;23.53;;;14.27;;
16954;SDS011;8594;52.052;8.354;2022-12-16T12:23:29;39.43;;;18.00;;
16954;SDS011;8594;52.052;8.354;2022-12-16T12:26:30;27.80;;;15.07;;
16954;SDS011;8594;52.052;8.354;2022-12-16T12:29:19;34.90;;;15.43;;
16954;SDS011;8594;52.052;8.354;2022-12-16T12:32:20;26.50;;;13.83;;
16954;SDS011;8594;52.052;8.354;2022-12-16T12:35:17;23.43;;;13.40;;
16954;SDS011;8594;52.052;8.354;2022-12-16T12:38:17;27.97;;;13.93;;
16954;SDS011;8594;52.052;8.354;2022-12-16T12:41:11;22.37;;;12.93;;
16954;SDS011;8594;52.052;8.354;2022-12-16T12:44:09;29.97;;;13.93;;
16954;SDS011;8594;52.052;8.354;2022-12-16T12:47:06;24.13;;;13.60;;
16954;SDS011;8594;52.052;8.354;2022-12-16T12:49:56;26.77;;;13.63;;
16954;SDS011;8594;52.052;8.354;2022-12-16T12:52:55;24.93;;;13.67;;
16954;SDS011;8594;52.052;8.354;2022-12-16T12:56:04;25.57;;;14.07;;
16954;SDS011;8594;52.052;8.354;2022-12-16T12:59:01;25.10;;;13.83;;
16954;SDS011;8594;52.052;8.354;2022-12-16T13:01:59;24.30;;;13.50;;
16954;SDS011;8594;52.052;8.354;2022-12-16T13:04:49;23.87;;;12.87;;
16954;SDS011;8594;52.052;8.354;2022-12-16T13:07:35;22.80;;;13.57;;
16954;SDS011;8594;52.052;8.354;2022-12-16T13:10:29;23.93;;;12.93;;
16954;SDS011;8594;52.052;8.354;2022-12-16T13:19:57;22.50;;;12.23;;
16954;SDS011;8594;52.052;8.354;2022-12-16T13:22:42;24.37;;;13.07;;
16954;SDS011;8594;52.052;8.354;2022-12-16T13:25:39;26.73;;;11.77;;
16954;SDS011;8594;52.052;8.354;2022-12-16T13:28:34;21.17;;;11.97;;
16954;SDS011;8594;52.052;8.354;2022-12-16T13:31:21;23.00;;;12.23;;
16954;SDS011;8594;52.052;8.354;2022-12-16T13:34:19;24.47;;;12.50;;
16954;SDS011;8594;52.052;8.354;2022-12-16T13:37:20;30.73;;;11.93;;
16954;SDS011;8594;52.052;8.354;2022-12-16T13:40:12;23.13;;;12.77;;
16954;SDS011;8594;52.052;8.354;2022-12-16T13:43:02;39.07;;;20.37;;
16954;SDS011;8594;52.052;8.354;2022-12-16T13:52:26;27.13;;;14.73;;
16954;SDS011;8594;52.052;8.354;2022-12-16T13:55:26;23.10;;;13.80;;
16954;SDS011;8594;52.052;8.354;2022-12-16T13:58:18;23.97;;;15.10;;
16954;SDS011;8594;52.052;8.354;2022-12-16T14:01:17;23.50;;;13.17;;
16954;SDS011;8594;52.052;8.354;2022-12-16T14:04:12;23.00;;;12.13;;
16954;SDS011;8594;52.052;8.354;2022-12-16T14:07:09;29.97;;;12.87;;
16954;SDS011;8594;52.052;8.354;2022-12-16T14:09:56;23.30;;;12.53;;
16954;SDS011;8594;52.052;8.354;2022-12-16T14:12:43;24.50;;;12.50;;
16954;SDS011;8594;52.052;8.354;2022-12-16T14:15:46;23.53;;;12.83;;
16954;SDS011;8594;52.052;8.354;2022-12-16T14:18:44;19.80;;;12.03;;
16954;SDS011;8594;52.052;8.354;2022-12-16T14:21:44;22.63;;;11.93;;
16954;SDS011;8594;52.052;8.354;2022-12-16T14:24:36;19.87;;;12.50;;
16954;SDS011;8594;52.052;8.354;2022-12-16T14:27:22;26.63;;;12.67;;
16954;SDS011;8594;52.052;8.354;2022-12-16T14:30:13;24.70;;;12.33;;
16954;SDS011;8594;52.052;8.354;2022-12-16T14:33:13;25.30;;;12.97;;
16954;SDS011;8594;52.052;8.354;2022-12-16T14:36:00;26.43;;;12.03;;
16954;SDS011;8594;52.052;8.354;2022-12-16T14:38:46;22.87;;;12.20;;
16954;SDS011;8594;52.052;8.354;2022-12-16T14:41:33;30.27;;;13.17;;
16954;SDS011;8594;52.052;8.354;2022-12-16T14:44:19;25.27;;;13.00;;
16954;SDS011;8594;52.052;8.354;2022-12-16T14:47:09;25.67;;;12.57;;
16954;SDS011;8594;52.052;8.354;2022-12-16T14:49:59;26.53;;;13.63;;
16954;SDS011;8594;52.052;8.354;2022-12-16T14:53:05;25.40;;;13.97;;
16954;SDS011;8594;52.052;8.354;2022-12-16T14:56:08;24.80;;;13.87;;
16954;SDS011;8594;52.052;8.354;2022-12-16T14:59:14;27.37;;;13.17;;
16954;SDS011;8594;52.052;8.354;2022-12-16T15:02:07;24.97;;;13.70;;
16954;SDS011;8594;52.052;8.354;2022-12-16T15:05:10;29.37;;;14.17;;
16954;SDS011;8594;52.052;8.354;2022-12-16T15:07:57;23.63;;;13.20;;
16954;SDS011;8594;52.052;8.354;2022-12-16T15:10:50;26.27;;;14.40;;
16954;SDS011;8594;52.052;8.354;2022-12-16T15:13:35;26.33;;;14.17;;
16954;SDS011;8594;52.052;8.354;2022-12-16T15:16:24;24.73;;;12.23;;
16954;SDS011;8594;52.052;8.354;2022-12-16T15:19:20;25.93;;;13.77;;
16954;SDS011;8594;52.052;8.354;2022-12-16T15:22:09;27.53;;;14.63;;
16954;SDS011;8594;52.052;8.354;2022-12-16T15:24:59;21.87;;;12.93;;
16954;SDS011;8594;52.052;8.354;2022-12-16T15:27:51;33.03;;;14.43;;
16954;SDS011;8594;52.052;8.354;2022-12-16T15:30:38;26.23;;;14.70;;
16954;SDS011;8594;52.052;8.354;2022-12-16T15:33:27;30.93;;;14.63;;
16954;SDS011;8594;52.052;8.354;2022-12-16T15:36:18;29.77;;;16.23;;
16954;SDS011;8594;52.052;8.354;2022-12-16T15:39:10;37.43;;;16.97;;
16954;SDS011;8594;52.052;8.354;2022-12-16T15:42:03;40.53;;;18.57;;
16954;SDS011;8594;52.052;8.354;2022-12-16T15:44:49;31.57;;;16.77;;
16954;SDS011;8594;52.052;8.354;2022-12-16T15:47:37;40.70;;;19.17;;
16954;SDS011;8594;52.052;8.354;2022-12-16T15:50:24;43.57;;;20.73;;
16954;SDS011;8594;52.052;8.354;2022-12-16T15:53:15;74.03;;;32.97;;
16954;SDS011;8594;52.052;8.354;2022-12-16T15:56:19;56.00;;;25.23;;
16954;SDS011;8594;52.052;8.354;2022-12-16T15:59:12;54.37;;;22.50;;
16954;SDS011;8594;52.052;8.354;2022-12-16T16:02:12;40.03;;;21.57;;
16954;SDS011;8594;52.052;8.354;2022-12-16T16:05:00;42.10;;;20.77;;
16954;SDS011;8594;52.052;8.354;2022-12-16T16:07:53;40.50;;;20.50;;
16954;SDS011;8594;52.052;8.354;2022-12-16T16:10:38;42.10;;;22.60;;
16954;SDS011;8594;52.052;8.354;2022-12-16T16:13:30;46.33;;;23.33;;
16954;SDS011;8594;52.052;8.354;2022-12-16T16:16:15;53.00;;;25.17;;
16954;SDS011;8594;52.052;8.354;2022-12-16T16:19:00;53.73;;;25.43;;
16954;SDS011;8594;52.052;8.354;2022-12-16T16:21:46;51.37;;;23.77;;
16954;SDS011;8594;52.052;8.354;2022-12-16T16:24:32;46.73;;;24.40;;
16954;SDS011;8594;52.052;8.354;2022-12-16T16:27:17;52.10;;;23.63;;
16954;SDS011;8594;52.052;8.354;2022-12-16T16:30:13;48.70;;;23.57;;
16954;SDS011;8594;52.052;8.354;2022-12-16T16:32:58;53.43;;;23.53;;
16954;SDS011;8594;52.052;8.354;2022-12-16T16:35:42;44.17;;;21.97;;
16954;SDS011;8594;52.052;8.354;2022-12-16T16:38:27;40.37;;;19.50;;
16954;SDS011;8594;52.052;8.354;2022-12-16T16:41:14;45.63;;;22.23;;
16954;SDS011;8594;52.052;8.354;2022-12-16T16:44:04;45.10;;;22.33;;
16954;SDS011;8594;52.052;8.354;2022-12-16T16:46:48;39.30;;;20.93;;